createdAt,value
2018-09-28T00:00:23.112Z,80.8
2018-09-28T00:01:24.618Z,81.37
2018-09-28T00:02:25.234Z,80.99
2018-09-28T00:03:25.565Z,81.27
2018-09-28T00:04:26.349Z,81.09
2018-09-28T00:05:27.131Z,80.41
2018-09-28T00:06:27.634Z,80.51
2018-09-28T00:07:29.244Z,80.32
2018-09-28T00:08:29.749Z,80.41
2018-09-28T00:09:31.088Z,79.85
2018-09-28T00:10:31.424Z,80.51
2018-09-28T00:11:32.279Z,80.22
2018-09-28T00:12:32.783Z,80.22
2018-09-28T00:13:33.566Z,79.85
2018-09-28T00:14:34.072Z,79.75
2018-09-28T00:15:34.853Z,80.04
2018-09-28T00:16:35.915Z,80.32
2018-09-28T00:17:36.249Z,80.7
2018-09-28T00:18:37.036Z,80.22
2018-09-28T00:19:37.820Z,80.32
2018-09-28T00:20:38.599Z,80.85
2018-09-28T00:21:39.832Z,81.52
2018-09-28T00:22:40.618Z,81.04
2018-09-28T00:23:41.397Z,80.85
2018-09-28T00:24:41.905Z,81.14
2018-09-28T00:25:42.959Z,80.28
2018-09-28T00:26:44.020Z,81.62
2018-09-28T00:27:45.079Z,81.62
2018-09-28T00:28:45.584Z,81.04
2018-09-28T00:29:46.366Z,81.14
2018-09-28T00:30:46.703Z,81.62
2018-09-28T00:31:47.651Z,81.14
2018-09-28T00:32:48.266Z,81.62
2018-09-28T00:33:49.325Z,81.04
2018-09-28T00:34:49.831Z,80.57
2018-09-28T00:35:51.485Z,80.19
2018-09-28T00:36:51.312Z,80.47
2018-09-28T00:37:52.370Z,80.09
2018-09-28T00:38:53.709Z,79.99
2018-09-28T00:39:54.489Z,80.28
2018-09-28T00:40:55.824Z,80.47
2018-09-28T00:41:56.080Z,80.38
2018-09-28T00:42:56.417Z,80.09
2018-09-28T00:43:57.197Z,80.47
2018-09-28T00:44:58.260Z,80.38
2018-09-28T00:45:58.873Z,79.9
2018-09-28T00:46:59.653Z,79.99
2018-09-28T00:48:00.992Z,80.09
2018-09-28T00:49:01.057Z,80.38
2018-09-28T00:50:02.112Z,80.47
2018-09-28T00:51:02.620Z,81.04
2018-09-28T00:52:03.132Z,81.04
2018-09-28T00:53:03.636Z,80.95
2018-09-28T00:54:04.419Z,80.95
2018-09-28T00:55:05.037Z,80.95
2018-09-28T00:56:05.097Z,82
2018-09-28T00:57:05.599Z,81.81
2018-09-28T00:58:07.104Z,81.43
2018-09-28T00:59:07.997Z,81.24
2018-09-28T01:00:08.778Z,81.24
2018-09-28T01:01:09.837Z,80.66
2018-09-28T01:02:10.786Z,80.95
2018-09-28T01:03:10.854Z,80.85
2018-09-28T01:04:11.358Z,81.14
2018-09-28T01:05:12.141Z,81.33
2018-09-28T01:06:13.194Z,81.04
2018-09-28T01:07:13.698Z,82
2018-09-28T01:08:14.203Z,81.24
2018-09-28T01:09:15.987Z,81.04
2018-09-28T01:10:16.767Z,81.43
2018-09-28T01:11:16.996Z,81.43
2018-09-28T01:12:17.821Z,81.81
2018-09-28T01:13:18.615Z,81.81
2018-09-28T01:14:19.224Z,80.76
2018-09-28T01:15:20.286Z,79.99
2018-09-28T01:16:21.067Z,81.04
2018-09-28T01:17:22.126Z,80.38
2018-09-28T01:18:22.906Z,80.19
2018-09-28T01:19:23.973Z,80.38
2018-09-28T01:20:24.755Z,80.47
2018-09-28T01:21:26.257Z,80.43
2018-09-28T01:22:27.318Z,80.95
2018-09-28T01:23:27.935Z,81.14
2018-09-28T01:24:28.160Z,80.38
2018-09-28T01:25:29.220Z,80.09
2018-09-28T01:26:29.721Z,81.43
2018-09-28T01:27:30.948Z,81.04
2018-09-28T01:28:31.732Z,81.14
2018-09-28T01:29:33.237Z,81.01
2018-09-28T01:30:34.021Z,80.91
2018-09-28T01:31:34.523Z,81.29
2018-09-28T01:32:35.199Z,81.77
2018-09-28T01:33:36.426Z,81.1
2018-09-28T01:34:38.041Z,81.38
2018-09-28T01:35:39.102Z,81.2
2018-09-28T01:36:39.164Z,81.2
2018-09-28T01:37:39.952Z,81.1
2018-09-28T01:38:40.450Z,81.01
2018-09-28T01:39:41.232Z,81.58
2018-09-28T01:40:42.574Z,81.29
2018-09-28T01:41:43.073Z,81.01
2018-09-28T01:42:44.049Z,81.77
2018-09-28T01:43:44.556Z,81.01
2018-09-28T01:44:44.888Z,81.01
2018-09-28T01:45:45.669Z,81.1
2018-09-28T01:46:46.177Z,81.1
2018-09-28T01:47:46.806Z,80.33
2018-09-28T01:48:47.312Z,80.24
2018-09-28T01:49:48.095Z,80.24
2018-09-28T01:50:48.876Z,80.28
2018-09-28T01:51:49.659Z,80.47
2018-09-28T01:52:50.616Z,80.09
2018-09-28T01:53:51.675Z,79.9
2018-09-28T01:54:52.459Z,79.71
2018-09-28T01:55:53.242Z,79.8
2018-09-28T01:56:54.297Z,79.9
2018-09-28T01:57:55.353Z,79.71
2018-09-28T01:58:56.412Z,79.71
2018-09-28T01:59:57.027Z,79.61
2018-09-28T02:00:57.089Z,79.8
2018-09-28T02:01:58.591Z,79.8
2018-09-28T02:03:00.097Z,79.8
2018-09-28T02:04:00.602Z,79.71
2018-09-28T02:05:01.687Z,79.33
2018-09-28T02:06:02.764Z,79.43
2018-09-28T02:07:03.545Z,79.04
2018-09-28T02:08:04.328Z,79.14
2018-09-28T02:09:05.390Z,79.33
2018-09-28T02:10:06.171Z,79.33
2018-09-28T02:11:07.521Z,78.85
2018-09-28T02:12:08.301Z,78.94
2018-09-28T02:13:09.159Z,78.28
2018-09-28T02:14:09.942Z,78.85
2018-09-28T02:15:10.735Z,78.47
2018-09-28T02:16:11.073Z,79.43
2018-09-28T02:17:12.132Z,78.94
2018-09-28T02:18:12.641Z,79.43
2018-09-28T02:19:13.425Z,79.52
2018-09-28T02:20:14.221Z,79.99
2018-09-28T02:21:15.564Z,79.23
2018-09-28T02:22:15.901Z,79.43
2018-09-28T02:23:16.852Z,79.43
2018-09-28T02:24:17.632Z,79.33
2018-09-28T02:25:18.701Z,79.14
2018-09-28T02:26:19.482Z,79.23
2018-09-28T02:27:20.264Z,79.33
2018-09-28T02:28:20.767Z,78.94
2018-09-28T02:29:21.546Z,78.94
2018-09-28T02:30:23.201Z,79.04
2018-09-28T02:31:24.394Z,79.04
2018-09-28T02:32:25.175Z,78.94
2018-09-28T02:33:25.960Z,78.94
2018-09-28T02:34:26.740Z,78.94
2018-09-28T02:35:28.356Z,78.47
2018-09-28T02:36:28.739Z,79.14
2018-09-28T02:37:29.795Z,79.33
2018-09-28T02:38:30.578Z,78.75
2018-09-28T02:39:32.083Z,78.85
2018-09-28T02:40:33.251Z,78.85
2018-09-28T02:41:34.148Z,78.94
2018-09-28T02:42:34.649Z,79.04
2018-09-28T02:43:35.715Z,79.43
2018-09-28T02:44:36.789Z,79.14
2018-09-28T02:45:37.405Z,78.94
2018-09-28T02:46:37.746Z,79.33
2018-09-28T02:47:39.644Z,79.33
2018-09-28T02:48:39.989Z,79.8
2018-09-28T02:49:40.049Z,79.61
2018-09-28T02:50:40.385Z,79.43
2018-09-28T02:51:41.310Z,79.52
2018-09-28T02:52:41.815Z,79.67
2018-09-28T02:53:42.646Z,79.86
2018-09-28T02:54:44.283Z,80.33
2018-09-28T02:55:45.065Z,80.43
2018-09-28T02:56:46.261Z,79.77
2018-09-28T02:57:47.356Z,79.86
2018-09-28T02:58:48.695Z,80.15
2018-09-28T02:59:48.761Z,79.67
2018-09-28T03:00:49.099Z,79.57
2018-09-28T03:01:49.437Z,79.67
2018-09-28T03:02:50.500Z,80.53
2018-09-28T03:03:51.033Z,79.96
2018-09-28T03:04:51.830Z,80.15
2018-09-28T03:05:52.873Z,79.71
2018-09-28T03:06:54.658Z,79.77
2018-09-28T03:07:55.000Z,79.77
2018-09-28T03:08:56.331Z,79.96
2018-09-28T03:09:56.956Z,80.24
2018-09-28T03:10:57.562Z,79.96
2018-09-28T03:11:58.466Z,81.1
2018-09-28T03:12:59.809Z,81.77
2018-09-28T03:14:00.292Z,81.86
2018-09-28T03:15:01.071Z,81.38
2018-09-28T03:16:02.736Z,80.33
2018-09-28T03:17:03.085Z,80.33
2018-09-28T03:18:03.976Z,80.33
2018-09-28T03:19:04.895Z,80.24
2018-09-28T03:20:05.677Z,80.05
2018-09-28T03:21:06.466Z,79.96
2018-09-28T03:22:07.360Z,79.77
2018-09-28T03:23:07.977Z,79.96
2018-09-28T03:24:08.518Z,80.43
2018-09-28T03:25:09.575Z,80.43
2018-09-28T03:26:10.914Z,79.19
2018-09-28T03:27:11.813Z,79
2018-09-28T03:28:12.871Z,79.28
2018-09-28T03:29:13.977Z,80.05
2018-09-28T03:30:15.592Z,79.38
2018-09-28T03:31:15.654Z,79.57
2018-09-28T03:32:16.546Z,79.1
2018-09-28T03:33:17.612Z,78.43
2018-09-28T03:34:17.880Z,78.91
2018-09-28T03:35:18.933Z,79.28
2018-09-28T03:36:19.720Z,79.96
2018-09-28T03:37:20.653Z,79.57
2018-09-28T03:38:20.991Z,80.43
2018-09-28T03:39:22.380Z,80.24
2018-09-28T03:40:22.733Z,80.53
2018-09-28T03:41:24.750Z,80.05
2018-09-28T03:42:25.091Z,79.77
2018-09-28T03:43:26.140Z,80.33
2018-09-28T03:44:27.091Z,80.05
2018-09-28T03:45:27.869Z,80.24
2018-09-28T03:46:28.929Z,79.57
2018-09-28T03:47:30.547Z,79.77
2018-09-28T03:48:31.440Z,79.86
2018-09-28T03:49:31.947Z,79.96
2018-09-28T03:50:33.009Z,80.05
2018-09-28T03:51:34.072Z,80.43
2018-09-28T03:52:34.685Z,81.01
2018-09-28T03:53:34.746Z,81.2
2018-09-28T03:54:36.387Z,81.1
2018-09-28T03:55:36.282Z,81.1
2018-09-28T03:56:36.786Z,81.01
2018-09-28T03:57:37.397Z,81.48
2018-09-28T03:58:38.458Z,81.2
2018-09-28T03:59:38.803Z,81.2
2018-09-28T04:00:40.410Z,80.43
2018-09-28T04:01:41.471Z,81.2
2018-09-28T04:02:42.627Z,80.91
2018-09-28T04:03:42.746Z,81.38
2018-09-28T04:04:44.277Z,81.1
2018-09-28T04:05:44.783Z,81.06
2018-09-28T04:06:45.840Z,81.73
2018-09-28T04:07:46.456Z,81.73
2018-09-28T04:08:47.836Z,81.54
2018-09-28T04:09:48.447Z,82.06
2018-09-28T04:10:48.520Z,82.01
2018-09-28T04:11:49.692Z,82.01
2018-09-28T04:12:50.363Z,82.59
2018-09-28T04:13:51.150Z,82.78
2018-09-28T04:14:51.546Z,82.87
2018-09-28T04:15:51.948Z,83.06
2018-09-28T04:16:53.013Z,82.97
2018-09-28T04:17:54.080Z,82.78
2018-09-28T04:18:55.414Z,82.87
2018-09-28T04:19:56.305Z,83.25
2018-09-28T04:20:57.646Z,83.44
2018-09-28T04:21:58.220Z,82.97
2018-09-28T04:22:58.143Z,83.35
2018-09-28T04:23:58.752Z,83.16
2018-09-28T04:24:59.694Z,83.06
2018-09-28T04:26:00.321Z,82.87
2018-09-28T04:27:00.657Z,83.64
2018-09-28T04:28:02.277Z,83.25
2018-09-28T04:29:03.055Z,83.64
2018-09-28T04:30:04.128Z,83.83
2018-09-28T04:31:04.457Z,83.64
2018-09-28T04:32:05.797Z,83.54
2018-09-28T04:33:06.302Z,83.54
2018-09-28T04:34:07.088Z,83.54
2018-09-28T04:34:51.351Z,83.83
2018-09-28T04:35:52.607Z,83.83
2018-09-28T04:36:53.387Z,83.83
2018-09-28T04:37:53.612Z,83.25
2018-09-28T04:38:54.127Z,84.01
2018-09-28T04:39:54.921Z,84.59
2018-09-28T04:40:55.704Z,84.3
2018-09-28T04:41:56.761Z,84.4
2018-09-28T04:42:57.834Z,84.59
2018-09-28T04:43:59.062Z,84.4
2018-09-28T04:44:59.842Z,83.92
2018-09-28T04:46:00.238Z,84.01
2018-09-28T04:47:01.571Z,84.01
2018-09-28T04:48:02.629Z,83.83
2018-09-28T04:49:03.131Z,83.54
2018-09-28T04:50:04.188Z,83.73
2018-09-28T04:51:04.970Z,83.73
2018-09-28T04:52:05.749Z,83.73
2018-09-28T04:53:06.532Z,84.2
2018-09-28T04:54:07.032Z,84.01
2018-09-28T04:55:07.818Z,83.83
2018-09-28T04:56:08.902Z,84.2
2018-09-28T04:57:09.796Z,84.26
2018-09-28T04:58:10.689Z,84.92
2018-09-28T04:59:10.928Z,84.45
2018-09-28T05:00:12.539Z,84.55
2018-09-28T05:01:12.766Z,83.88
2018-09-28T05:02:13.270Z,83.78
2018-09-28T05:03:13.775Z,84.74
2018-09-28T05:04:14.835Z,84.26
2018-09-28T05:05:15.899Z,84.97
2018-09-28T05:06:16.152Z,84.59
2018-09-28T05:07:17.380Z,83.92
2018-09-28T05:08:19.168Z,83.78
2018-09-28T05:09:19.671Z,83.69
2018-09-28T05:10:20.456Z,84.26
2018-09-28T05:11:21.239Z,84.45
2018-09-28T05:12:22.574Z,84.92
2018-09-28T05:13:22.360Z,84.83
2018-09-28T05:14:23.139Z,85.41
2018-09-28T05:15:24.232Z,85.69
2018-09-28T05:16:24.905Z,85.6
2018-09-28T05:17:26.243Z,85.78
2018-09-28T05:18:27.050Z,85.78
2018-09-28T05:19:29.057Z,85.88
2018-09-28T05:20:29.762Z,86.26
2018-09-28T05:21:30.824Z,86.55
2018-09-28T05:22:31.884Z,86.65
2018-09-28T05:23:32.219Z,86.45
2018-09-28T05:24:33.005Z,85.88
2018-09-28T05:25:34.180Z,85.78
2018-09-28T05:26:34.424Z,84.83
2018-09-28T05:27:35.207Z,85.21
2018-09-28T05:28:36.269Z,85.12
2018-09-28T05:29:36.609Z,84.74
2018-09-28T05:30:55.520Z,84.07
2018-09-28T05:31:02.648Z,84.16
2018-09-28T05:32:03.277Z,84.74
2018-09-28T05:33:04.273Z,84.36
2018-09-28T05:34:04.544Z,83.88
2018-09-28T05:35:05.605Z,83.88
2018-09-28T05:36:06.112Z,83.78
2018-09-28T05:37:07.580Z,83.31
2018-09-28T05:38:07.913Z,83.44
2018-09-28T05:39:08.977Z,82.68
2018-09-28T05:40:09.046Z,83.35
2018-09-28T05:41:10.824Z,83.16
2018-09-28T05:42:11.608Z,83.25
2018-09-28T05:43:12.670Z,82.78
2018-09-28T05:44:13.176Z,82.78
2018-09-28T05:45:13.962Z,82.97
2018-09-28T05:46:14.883Z,82.3
2018-09-28T05:47:15.130Z,82.11
2018-09-28T05:48:15.911Z,82.11
2018-09-28T05:49:16.977Z,80.43
2018-09-28T05:50:17.771Z,78.72
2018-09-28T05:51:18.540Z,77.99
2018-09-28T05:52:18.506Z,76.98
2018-09-28T05:53:19.304Z,76.5
2018-09-28T05:54:20.085Z,74.98
2018-09-28T05:55:20.596Z,74.73
2018-09-28T05:56:21.383Z,74.44
2018-09-28T05:57:22.726Z,75.59
2018-09-28T05:58:23.900Z,75.64
2018-09-28T05:59:24.056Z,74.82
2018-09-28T06:00:24.847Z,74.15
2018-09-28T06:01:25.636Z,73.29
2018-09-28T06:02:26.877Z,73.04
2018-09-28T06:03:28.223Z,72.18
2018-09-28T06:04:28.741Z,71.61
2018-09-28T06:05:29.464Z,71.42
2018-09-28T06:06:30.418Z,70.27
2018-09-28T06:07:31.042Z,70.11
2018-09-28T06:08:31.130Z,71.55
2018-09-28T06:09:34.057Z,71.99
2018-09-28T06:10:33.748Z,72.28
2018-09-28T06:11:34.004Z,71.99
2018-09-28T06:12:35.235Z,71.99
2018-09-28T06:13:36.330Z,73
2018-09-28T06:14:36.361Z,73.19
2018-09-28T06:15:38.006Z,73.19
2018-09-28T06:16:38.346Z,73.39
2018-09-28T06:17:39.418Z,74.15
2018-09-28T06:18:41.059Z,74.59
2018-09-28T06:19:41.767Z,75.16
2018-09-28T06:20:42.276Z,75.45
2018-09-28T06:21:43.424Z,75.54
2018-09-28T06:22:44.933Z,75.83
2018-09-28T06:23:45.440Z,76.75
2018-09-28T06:24:46.510Z,77.32
2018-09-28T06:25:47.999Z,77.42
2018-09-28T06:26:48.463Z,77.51
2018-09-28T06:27:49.693Z,77.8
2018-09-28T06:28:50.204Z,77.7
2018-09-28T06:29:51.406Z,77.51
2018-09-28T06:30:51.993Z,77.51
2018-09-28T06:31:52.515Z,78.09
2018-09-28T06:32:53.033Z,78.09
2018-09-28T06:33:53.543Z,79.23
2018-09-28T06:34:54.608Z,78.94
2018-09-28T06:35:56.260Z,78.56
2018-09-28T06:36:56.297Z,77.89
2018-09-28T06:37:57.085Z,77.99
2018-09-28T06:38:57.866Z,78.37
2018-09-28T06:39:59.093Z,79.04
2018-09-28T06:40:59.435Z,78.37
2018-09-28T06:42:01.499Z,78.28
2018-09-28T06:43:01.128Z,76.18
2018-09-28T06:44:01.739Z,74.4
2018-09-28T06:45:02.822Z,73.77
2018-09-28T06:46:03.610Z,72.94
2018-09-28T06:47:04.124Z,70.97
2018-09-28T06:48:05.526Z,70.5
2018-09-28T06:49:06.655Z,69.54
2018-09-28T06:50:07.012Z,69.44
2018-09-28T06:51:08.739Z,69.67
2018-09-28T06:52:09.204Z,69.57
2018-09-28T06:53:09.888Z,69.19
2018-09-28T06:54:11.185Z,69.29
2018-09-28T06:55:12.368Z,69.29
2018-09-28T06:56:13.442Z,68.33
2018-09-28T06:57:13.506Z,68.33
2018-09-28T06:58:14.702Z,68.04
2018-09-28T06:59:15.562Z,68.74
2018-09-28T07:00:16.428Z,69.7
2018-09-28T07:01:16.750Z,68.65
2018-09-28T07:02:17.267Z,68.55
2018-09-28T07:03:18.231Z,69.03
2018-09-28T07:04:19.313Z,67.6
2018-09-28T07:05:19.825Z,67.31
2018-09-28T07:06:21.626Z,66.45
2018-09-28T07:07:21.371Z,66.29
2018-09-28T07:08:22.448Z,67.05
2018-09-28T07:09:23.723Z,65.71
2018-09-28T07:10:24.040Z,65.33
2018-09-28T07:11:24.940Z,65.33
2018-09-28T07:12:25.752Z,64.4
2018-09-28T07:13:27.537Z,64.15
2018-09-28T07:14:28.611Z,63.67
2018-09-28T07:15:29.850Z,62.36
2018-09-28T07:16:31.306Z,60.82
2018-09-28T07:17:32.088Z,61.05
2018-09-28T07:18:32.325Z,60.18
2018-09-28T07:19:33.116Z,60.98
2018-09-28T07:20:34.906Z,59.92
2018-09-28T07:21:35.419Z,58.96
2018-09-28T07:22:36.050Z,61.08
2018-09-28T07:23:37.147Z,62.19
2018-09-28T07:24:38.699Z,62.39
2018-09-28T07:25:39.584Z,60.18
2018-09-28T07:26:40.428Z,60.28
2018-09-28T07:27:41.500Z,60.85
2018-09-28T07:28:41.569Z,61.27
2018-09-28T07:29:42.453Z,60.6
2018-09-28T07:30:43.251Z,59.06
2018-09-28T07:31:44.042Z,59.54
2018-09-28T07:32:44.553Z,61.84
2018-09-28T07:33:45.252Z,61.84
2018-09-28T07:34:46.766Z,61.24
2018-09-28T07:35:47.344Z,61.33
2018-09-28T07:36:50.796Z,61.72
2018-09-28T07:37:50.871Z,62.68
2018-09-28T07:38:52.003Z,62.29
2018-09-28T07:39:52.795Z,62.58
2018-09-28T07:40:53.311Z,62.96
2018-09-28T07:41:55.196Z,63.64
2018-09-28T07:42:55.543Z,63.51
2018-09-28T07:43:56.365Z,64.18
2018-09-28T07:44:57.155Z,65.43
2018-09-28T07:45:57.672Z,66.49
2018-09-28T07:46:59.188Z,66.39
2018-09-28T07:48:00.924Z,66.29
2018-09-28T07:49:01.115Z,67.06
2018-09-28T07:50:02.530Z,67.83
2018-09-28T07:51:03.608Z,67.63
2018-09-28T07:52:03.843Z,67.06
2018-09-28T07:53:04.636Z,67.44
2018-09-28T07:54:06.383Z,67.92
2018-09-28T07:55:06.822Z,68.3
2018-09-28T07:56:07.892Z,68.59
2018-09-28T07:57:08.402Z,67.99
2018-09-28T07:58:09.641Z,67.92
2018-09-28T07:59:09.985Z,67.92
2018-09-28T08:00:10.736Z,68.98
2018-09-28T08:01:11.212Z,69.17
2018-09-28T08:02:11.582Z,68.75
2018-09-28T08:03:12.375Z,69.65
2018-09-28T08:04:12.796Z,70.42
2018-09-28T08:05:16.202Z,69.23
2018-09-28T08:05:25.865Z,69.07
2018-09-28T08:06:26.828Z,69.17
2018-09-28T08:07:27.617Z,68.69
2018-09-28T08:08:27.968Z,69.17
2018-09-28T08:09:29.048Z,70.19
2018-09-28T08:10:29.899Z,70.13
2018-09-28T08:11:30.739Z,70.42
2018-09-28T08:12:30.812Z,71.19
2018-09-28T08:13:32.027Z,70.03
2018-09-28T08:14:31.815Z,69.56
2018-09-28T08:15:32.876Z,70.13
2018-09-28T08:16:33.976Z,68.4
2018-09-28T08:17:34.792Z,67.83
2018-09-28T08:18:35.579Z,68.12
2018-09-28T08:19:35.930Z,68.88
2018-09-28T08:20:36.719Z,67.92
2018-09-28T08:21:38.097Z,66.49
2018-09-28T08:22:38.332Z,66.49
2018-09-28T08:23:39.127Z,65.91
2018-09-28T08:24:39.989Z,66
2018-09-28T08:25:40.527Z,67.83
2018-09-28T08:26:41.538Z,68.53
2018-09-28T08:27:42.583Z,67.63
2018-09-28T08:28:43.090Z,67.96
2018-09-28T08:29:44.167Z,68.63
2018-09-28T08:30:44.957Z,68.63
2018-09-28T08:31:45.468Z,68.34
2018-09-28T08:32:46.094Z,68.24
2018-09-28T08:33:46.885Z,67.47
2018-09-28T08:34:47.673Z,67.86
2018-09-28T08:35:47.905Z,67.47
2018-09-28T08:36:49.094Z,68.15
2018-09-28T08:37:50.545Z,67.76
2018-09-28T08:38:51.334Z,67.47
2018-09-28T08:39:52.625Z,67.03
2018-09-28T08:40:53.286Z,67.51
2018-09-28T08:41:53.865Z,67.61
2018-09-28T08:42:54.985Z,66.84
2018-09-28T08:43:56.536Z,65.97
2018-09-28T08:44:57.382Z,67.54
2018-09-28T08:45:58.712Z,67.45
2018-09-28T08:46:59.013Z,67.54
2018-09-28T08:47:59.810Z,67.45
2018-09-28T08:49:00.060Z,66.58
2018-09-28T08:50:00.874Z,66.87
2018-09-28T08:51:01.670Z,67.45
2018-09-28T08:52:03.184Z,70.07
2018-09-28T08:53:03.695Z,69.5
2018-09-28T08:54:03.767Z,68.25
2018-09-28T08:55:07.972Z,67.68
2018-09-28T08:55:19.048Z,67.48
2018-09-28T08:56:18.236Z,67
2018-09-28T08:57:19.613Z,67.19
2018-09-28T08:58:19.688Z,67.19
2018-09-28T08:59:21.309Z,66.52
2018-09-28T09:00:22.098Z,67.86
2018-09-28T09:01:23.476Z,67.9
2018-09-28T09:02:24.100Z,66.84
2018-09-28T09:03:23.925Z,67.96
2018-09-28T09:04:25.060Z,66.94
2018-09-28T09:05:25.570Z,67.03
2018-09-28T09:06:25.939Z,67.22
2018-09-28T09:07:26.562Z,66.46
2018-09-28T09:08:27.074Z,67
2018-09-28T09:09:28.151Z,69.15
2018-09-28T09:10:29.340Z,67.8
2018-09-28T09:11:29.649Z,68.29
2018-09-28T09:12:30.879Z,69.34
2018-09-28T09:13:31.954Z,69.06
2018-09-28T09:14:33.022Z,69.34
2018-09-28T09:15:34.371Z,68.38
2018-09-28T09:16:35.442Z,66.46
2018-09-28T09:17:36.508Z,65.59
2018-09-28T09:18:37.574Z,65.3
2018-09-28T09:19:38.203Z,66.17
2018-09-28T09:20:39.552Z,65.01
2018-09-28T09:21:39.901Z,65.01
2018-09-28T09:22:40.969Z,66.17
2018-09-28T09:23:41.481Z,66.55
2018-09-28T09:24:41.831Z,67.22
2018-09-28T09:25:43.341Z,67.9
2018-09-28T09:26:43.604Z,66.46
2018-09-28T09:27:44.397Z,66.39
2018-09-28T09:28:45.748Z,65.24
2018-09-28T09:29:47.538Z,64.47
2018-09-28T09:30:48.341Z,68.03
2018-09-28T09:31:48.859Z,69.95
2018-09-28T09:32:50.101Z,69.47
2018-09-28T09:33:50.613Z,67.55
2018-09-28T09:34:52.402Z,66.52
2018-09-28T09:35:53.474Z,65.85
2018-09-28T09:36:54.947Z,64.89
2018-09-28T09:37:56.020Z,67.68
2018-09-28T09:38:56.531Z,68.06
2018-09-28T09:39:57.584Z,67.58
2018-09-28T09:40:57.656Z,65.08
2018-09-28T09:41:58.763Z,64.25
2018-09-28T09:42:59.274Z,63.31
2018-09-28T09:43:59.799Z,63.89
2018-09-28T09:45:00.595Z,63.6
2018-09-28T09:46:01.952Z,65.72
2018-09-28T09:47:02.189Z,66.49
2018-09-28T09:48:02.766Z,66.49
2018-09-28T09:49:03.285Z,68.23
2018-09-28T09:50:04.630Z,68.71
2018-09-28T09:51:05.423Z,67.84
2018-09-28T09:52:05.602Z,65.43
2018-09-28T09:53:05.934Z,64.86
2018-09-28T09:54:06.283Z,63.6
2018-09-28T09:55:07.077Z,62.48
2018-09-28T09:56:07.721Z,61.44
2018-09-28T09:57:09.360Z,60.68
2018-09-28T09:58:10.280Z,59.45
2018-09-28T09:59:10.634Z,59.06
2018-09-28T10:00:11.147Z,58.12
2018-09-28T10:01:11.666Z,57.77
2018-09-28T10:02:12.283Z,57.38
2018-09-28T10:03:13.620Z,57.09
2018-09-28T10:04:13.969Z,56.99
2018-09-28T10:05:14.802Z,56.32
2018-09-28T10:06:14.878Z,56.71
2018-09-28T10:07:16.191Z,55.74
2018-09-28T10:08:16.651Z,55.67
2018-09-28T10:09:17.392Z,55.47
2018-09-28T10:10:18.270Z,55.38
2018-09-28T10:11:19.392Z,54.99
2018-09-28T10:12:20.641Z,55.67
2018-09-28T10:13:21.207Z,55.31
2018-09-28T10:14:22.558Z,55.7
2018-09-28T10:15:23.083Z,55.6
2018-09-28T10:16:23.603Z,56.11
2018-09-28T10:17:24.589Z,56.62
2018-09-28T10:18:25.113Z,53.91
2018-09-28T10:19:26.077Z,53.36
2018-09-28T10:20:26.973Z,52.9
2018-09-28T10:21:27.215Z,52.03
2018-09-28T10:22:28.584Z,52.22
2018-09-28T10:23:28.830Z,53.26
2018-09-28T10:24:30.070Z,54.11
2018-09-28T10:25:31.007Z,54.21
2018-09-28T10:26:31.812Z,54.57
2018-09-28T10:27:33.395Z,54.75
2018-09-28T10:28:34.111Z,53.63
2018-09-28T10:29:34.384Z,52.73
2018-09-28T10:30:34.888Z,53.53
2018-09-28T10:31:35.974Z,52.82
2018-09-28T10:32:36.774Z,53.33
2018-09-28T10:33:39.152Z,53.14
2018-09-28T10:34:39.701Z,52.66
2018-09-28T10:35:40.332Z,53.43
2018-09-28T10:36:41.419Z,53.53
2018-09-28T10:37:42.538Z,53.14
2018-09-28T10:38:43.099Z,54.3
2018-09-28T10:39:44.395Z,53.45
2018-09-28T10:40:45.409Z,54.3
2018-09-28T10:41:45.031Z,54.39
2018-09-28T10:42:49.316Z,54.11
2018-09-28T10:42:59.338Z,54.49
2018-09-28T10:43:58.891Z,54.49
2018-09-28T10:44:59.423Z,54.69
2018-09-28T10:46:00.588Z,54.49
2018-09-28T10:47:01.383Z,54.49
2018-09-28T10:48:02.857Z,53.53
2018-09-28T10:49:04.214Z,54.66
2018-09-28T10:50:04.015Z,54.57
2018-09-28T10:51:05.095Z,55.63
2018-09-28T10:52:05.644Z,55.51
2018-09-28T10:53:06.819Z,55.31
2018-09-28T10:54:07.372Z,56.25
2018-09-28T10:55:07.775Z,55.77
2018-09-28T10:56:08.576Z,55.09
2018-09-28T10:57:09.704Z,56.61
2018-09-28T10:58:11.642Z,57.09
2018-09-28T10:59:11.153Z,57.96
2018-09-28T11:00:12.232Z,58.51
2018-09-28T11:01:12.663Z,58.54
2018-09-28T11:02:13.734Z,58.42
2018-09-28T11:03:14.620Z,60.16
2018-09-28T11:04:15.345Z,61.25
2018-09-28T11:05:16.646Z,58.93
2018-09-28T11:06:17.463Z,61.34
2018-09-28T11:07:18.281Z,62.4
2018-09-28T11:08:19.200Z,61.92
2018-09-28T11:09:20.453Z,60.57
2018-09-28T11:10:21.685Z,59.22
2018-09-28T11:11:21.668Z,60.18
2018-09-28T11:12:22.316Z,60.09
2018-09-28T11:13:23.621Z,59.02
2018-09-28T11:14:24.706Z,58.8
2018-09-28T11:15:25.085Z,58.8
2018-09-28T11:16:25.865Z,59.45
2018-09-28T11:17:26.651Z,60.41
2018-09-28T11:18:27.286Z,60.03
2018-09-28T11:19:28.357Z,60.41
2018-09-28T11:20:28.993Z,61.28
2018-09-28T11:21:30.214Z,64.95
2018-09-28T11:22:30.907Z,62.92
2018-09-28T11:23:31.704Z,60.22
2018-09-28T11:24:32.329Z,60.41
2018-09-28T11:25:32.402Z,61.19
2018-09-28T11:26:33.473Z,61.57
2018-09-28T11:27:34.755Z,60.41
2018-09-28T11:28:34.798Z,60.03
2018-09-28T11:29:35.592Z,60.03
2018-09-28T11:30:35.941Z,60.22
2018-09-28T11:31:36.736Z,60.31
2018-09-28T11:32:38.084Z,60.8
2018-09-28T11:33:39.698Z,60.41
2018-09-28T11:34:40.186Z,61.47
2018-09-28T11:35:40.699Z,61.67
2018-09-28T11:36:41.222Z,63.6
2018-09-28T11:37:42.162Z,63.7
2018-09-28T11:38:43.334Z,64.28
2018-09-28T11:39:44.756Z,61.09
2018-09-28T11:40:45.083Z,61.38
2018-09-28T11:41:45.881Z,61.35
2018-09-28T11:42:46.675Z,62.41
2018-09-28T11:43:47.758Z,61.64
2018-09-28T11:44:48.446Z,61.35
2018-09-28T11:45:49.228Z,61.93
2018-09-28T11:46:50.181Z,62.12
2018-09-28T11:47:50.535Z,63.09
2018-09-28T11:48:51.077Z,62.7
2018-09-28T11:49:52.144Z,62.02
2018-09-28T11:50:52.937Z,62.31
2018-09-28T11:51:56.900Z,63.76
2018-09-28T11:52:07.676Z,62.6
2018-09-28T11:52:16.931Z,62.41
2018-09-28T11:53:17.683Z,62.31
2018-09-28T11:54:18.754Z,62.12
2018-09-28T11:55:19.827Z,62.7
2018-09-28T11:56:21.175Z,62.99
2018-09-28T11:57:22.471Z,62.79
2018-09-28T11:58:22.773Z,65.34
2018-09-28T11:59:24.010Z,63.89
2018-09-28T12:00:24.360Z,62.54
2018-09-28T12:01:25.434Z,62.47
2018-09-28T12:02:26.515Z,63.34
2018-09-28T12:03:29.280Z,61.25
2018-09-28T12:04:29.795Z,60.09
2018-09-28T12:05:30.434Z,63.76
2018-09-28T12:06:31.147Z,60.18
2018-09-28T12:07:32.318Z,61.25
2018-09-28T12:08:32.624Z,61.05
2018-09-28T12:09:33.598Z,61.34
2018-09-28T12:10:34.392Z,61.83
2018-09-28T12:11:34.914Z,61.54
2018-09-28T12:12:35.828Z,61.37
2018-09-28T12:13:36.713Z,61.08
2018-09-28T12:14:37.284Z,60.69
2018-09-28T12:15:39.003Z,59.44
2018-09-28T12:16:39.149Z,60.57
2018-09-28T12:17:39.945Z,62.47
2018-09-28T12:18:41.148Z,61.6
2018-09-28T12:19:41.283Z,61.41
2018-09-28T12:20:41.800Z,62.76
2018-09-28T12:21:43.003Z,65.08
2018-09-28T12:22:43.372Z,63.53
2018-09-28T12:23:44.625Z,61.7
2018-09-28T12:24:45.915Z,61.25
2018-09-28T12:25:46.478Z,63.43
2018-09-28T12:26:47.831Z,62.95
2018-09-28T12:27:48.401Z,64.31
2018-09-28T12:28:49.336Z,61.89
2018-09-28T12:29:50.411Z,63.08
2018-09-28T12:30:51.392Z,61.51
2018-09-28T12:31:51.936Z,60.76
2018-09-28T12:32:52.729Z,61.02
2018-09-28T12:33:53.399Z,61.47
2018-09-28T12:34:53.919Z,61.19
2018-09-28T12:35:54.599Z,61.47
2018-09-28T12:36:55.396Z,61.67
2018-09-28T12:37:56.745Z,61.19
2018-09-28T12:38:57.283Z,61.22
2018-09-28T12:39:59.542Z,60.54
2018-09-28T12:41:00.159Z,60.99
2018-09-28T12:42:00.398Z,61.19
2018-09-28T12:43:03.417Z,59.67
2018-09-28T12:44:04.575Z,60.41
2018-09-28T12:45:04.744Z,60.71
2018-09-28T12:46:05.428Z,60.61
2018-09-28T12:47:07.361Z,61.41
2018-09-28T12:48:07.652Z,60.44
2018-09-28T12:49:08.048Z,60.54
2018-09-28T12:50:09.226Z,59.48
2018-09-28T12:51:10.004Z,59.86
2018-09-28T12:52:10.076Z,60.44
2018-09-28T12:53:10.871Z,59.77
2018-09-28T12:54:12.251Z,58.9
2018-09-28T12:55:12.890Z,59.58
2018-09-28T12:56:14.409Z,61.12
2018-09-28T12:57:15.164Z,60.83
2018-09-28T12:58:16.289Z,60.73
2018-09-28T12:59:16.791Z,61.41
2018-09-28T13:00:18.403Z,68.17
2018-09-28T13:01:19.593Z,64.11